createdAt,value
2019-01-31T00:02:21.234Z,1.61
2019-01-31T00:05:12.880Z,1.75
2019-01-31T00:08:16.144Z,1.78
2019-01-31T00:10:52.580Z,1.77
2019-01-31T00:13:34.917Z,1.83
2019-01-31T00:16:55.322Z,1.69
2019-01-31T00:19:46.482Z,1.69
2019-01-31T00:22:42.326Z,1.84
2019-01-31T00:25:30.685Z,1.65
2019-01-31T00:28:24.950Z,1.63
2019-01-31T00:31:27.968Z,1.65
2019-01-31T00:34:39.447Z,1.70
2019-01-31T00:37:24.809Z,1.55
2019-01-31T00:40:23.586Z,1.46
2019-01-31T00:43:12.442Z,1.59
2019-01-31T00:46:16.059Z,1.65
2019-01-31T00:49:07.130Z,1.58
2019-01-31T00:51:49.511Z,1.76
2019-01-31T00:55:00.888Z,1.63
2019-01-31T00:57:58.629Z,1.70
2019-01-31T01:00:49.696Z,1.56
2019-01-31T01:03:32.107Z,1.60
2019-01-31T01:06:20.669Z,1.71
2019-01-31T01:09:07.777Z,1.78
2019-01-31T01:12:10.878Z,1.76
2019-01-31T01:15:11.616Z,1.97
2019-01-31T01:17:48.161Z,2.03
2019-01-31T01:20:33.586Z,1.88
2019-01-31T01:23:40.201Z,1.87
2019-01-31T01:26:27.864Z,1.78
2019-01-31T01:29:23.910Z,1.78
2019-01-31T01:32:00.398Z,1.77
2019-01-31T01:35:00.941Z,1.84
2019-01-31T01:38:04.310Z,1.97
2019-01-31T01:40:55.594Z,2.04
2019-01-31T01:44:12.155Z,1.91
2019-01-31T01:46:57.788Z,1.74
2019-01-31T01:49:49.259Z,1.80
2019-01-31T01:52:46.574Z,1.90
2019-01-31T01:55:42.786Z,1.82
2019-01-31T01:58:25.006Z,1.78
2019-01-31T02:01:10.125Z,1.77
2019-01-31T02:04:04.872Z,1.79
2019-01-31T02:06:50.172Z,1.72
2019-01-31T02:09:44.511Z,1.71
2019-01-31T02:12:38.236Z,1.75
2019-01-31T02:15:23.325Z,1.79
2019-01-31T02:18:11.141Z,1.74
2019-01-31T02:20:59.601Z,1.88
2019-01-31T02:23:36.075Z,1.82
2019-01-31T02:26:34.461Z,1.74
2019-01-31T02:29:19.500Z,1.63
2019-01-31T02:32:14.334Z,1.59
2019-01-31T02:35:02.592Z,1.64
2019-01-31T02:37:39.328Z,1.49
2019-01-31T02:40:30.891Z,1.58
2019-01-31T02:43:26.878Z,1.68
2019-01-31T02:46:17.807Z,1.69
2019-01-31T02:49:12.592Z,1.73
2019-01-31T02:52:03.861Z,1.62
2019-01-31T02:54:52.066Z,1.61
2019-01-31T02:58:09.637Z,1.43
2019-01-31T03:00:52.064Z,1.38
2019-01-31T03:03:43.534Z,1.37
2019-01-31T03:06:37.857Z,1.49
2019-01-31T03:09:34.128Z,1.37
2019-01-31T03:12:30.902Z,1.47
2019-01-31T03:15:22.767Z,1.54
2019-01-31T03:18:17.434Z,1.56
2019-01-31T03:21:08.991Z,1.64
2019-01-31T03:24:20.375Z,1.65
2019-01-31T03:27:02.591Z,1.67
2019-01-31T03:30:01.454Z,1.48
2019-01-31T03:32:46.633Z,1.47
2019-01-31T03:35:28.720Z,1.51
2019-01-31T03:38:26.349Z,1.50
2019-01-31T03:41:23.906Z,1.44
2019-01-31T03:44:11.512Z,1.46
2019-01-31T03:46:50.675Z,1.43
2019-01-31T03:49:35.667Z,1.41
2019-01-31T03:52:12.252Z,1.43
2019-01-31T03:55:17.638Z,1.44
2019-01-31T03:58:15.176Z,1.24
2019-01-31T04:01:24.882Z,1.23
2019-01-31T04:04:16.506Z,1.18
2019-01-31T04:06:48.211Z,1.06
2019-01-31T04:09:19.923Z,1.08
2019-01-31T04:11:51.600Z,1.24
2019-01-31T04:14:23.291Z,1.23
2019-01-31T04:16:55.137Z,1.28
2019-01-31T04:19:26.807Z,1.29
2019-01-31T04:21:58.386Z,1.25
2019-01-31T04:24:30.226Z,1.23
2019-01-31T04:27:01.880Z,1.16
2019-01-31T04:29:33.587Z,1.15
2019-01-31T04:32:05.289Z,1.11
2019-01-31T04:34:36.882Z,1.11
2019-01-31T04:37:08.448Z,1.14
2019-01-31T04:39:40.141Z,1.12
2019-01-31T04:42:11.758Z,1.05
2019-01-31T04:44:43.756Z,0.93
2019-01-31T04:47:15.397Z,0.93
2019-01-31T04:49:47.032Z,0.97
2019-01-31T04:52:18.672Z,1.06
2019-01-31T04:54:50.264Z,1.06
2019-01-31T04:57:21.945Z,1.11
2019-01-31T04:59:53.559Z,1.12
2019-01-31T05:02:25.251Z,1.07
2019-01-31T05:04:56.947Z,1.05
2019-01-31T05:07:28.598Z,0.99
2019-01-31T05:10:00.508Z,0.94
2019-01-31T05:12:32.123Z,0.82
2019-01-31T05:15:04.059Z,0.76
2019-01-31T05:17:35.706Z,0.66
2019-01-31T05:20:12.247Z,0.63
2019-01-31T05:22:43.935Z,0.69
2019-01-31T05:25:18.522Z,0.66
2019-01-31T05:27:51.853Z,0.51
2019-01-31T05:30:24.313Z,0.56
2019-01-31T05:32:58.942Z,0.58
2019-01-31T05:35:29.914Z,0.49
2019-01-31T05:38:01.591Z,0.32
2019-01-31T05:40:33.290Z,0.32
2019-01-31T05:43:05.243Z,0.28
2019-01-31T05:45:36.839Z,0.32
2019-01-31T05:48:09.076Z,0.41
2019-01-31T05:50:40.678Z,0.43
2019-01-31T05:53:13.081Z,0.27
2019-01-31T05:55:45.871Z,0.35
2019-01-31T05:58:17.958Z,0.36
2019-01-31T06:00:49.757Z,0.56
2019-01-31T06:03:24.772Z,0.67
2019-01-31T06:05:56.741Z,0.80
2019-01-31T06:08:29.364Z,0.73
2019-01-31T06:11:07.647Z,0.61
2019-01-31T06:13:34.562Z,0.67
2019-01-31T06:16:06.984Z,0.75
2019-01-31T06:18:38.848Z,0.71
2019-01-31T06:21:13.677Z,0.63
2019-01-31T06:23:44.370Z,0.56
2019-01-31T06:26:15.984Z,0.66
2019-01-31T06:28:47.652Z,0.55
2019-01-31T06:31:19.270Z,0.45
2019-01-31T06:33:50.989Z,0.49
2019-01-31T06:36:24.064Z,0.48
2019-01-31T06:38:55.714Z,0.42
2019-01-31T06:41:27.476Z,0.54
2019-01-31T06:43:59.143Z,0.54
2019-01-31T06:46:30.854Z,0.56
2019-01-31T06:49:02.450Z,0.47
2019-01-31T06:51:34.108Z,0.40
2019-01-31T06:54:07.789Z,0.19
2019-01-31T06:56:39.620Z,0.14
2019-01-31T06:59:11.288Z,0.20
2019-01-31T07:01:42.932Z,0.16
2019-01-31T07:04:14.479Z,0.08
2019-01-31T07:06:46.031Z,0.21
2019-01-31T07:09:17.622Z,0.06
2019-01-31T07:11:49.322Z,0.14
2019-01-31T07:14:20.949Z,0.08
2019-01-31T07:16:52.538Z,0.14
2019-01-31T07:19:24.205Z,0.13
2019-01-31T07:21:55.797Z,0.08
2019-01-31T07:24:27.438Z,0.06
2019-01-31T07:26:59.039Z,0.21
2019-01-31T07:29:30.721Z,0.24
2019-01-31T07:32:03.672Z,0.20
2019-01-31T07:34:35.490Z,0.35
2019-01-31T07:37:07.174Z,0.35
2019-01-31T07:39:41.976Z,0.19
2019-01-31T07:42:13.695Z,0.14
2019-01-31T07:44:45.360Z,0.23
2019-01-31T07:47:17.048Z,0.31
2019-01-31T07:49:48.672Z,0.33
2019-01-31T07:52:20.318Z,0.44
2019-01-31T07:54:51.888Z,0.67
2019-01-31T07:57:23.634Z,0.63
2019-01-31T07:59:55.378Z,0.70
2019-01-31T08:02:27.117Z,0.77
2019-01-31T08:04:58.778Z,0.65
2019-01-31T08:07:30.348Z,0.69
2019-01-31T08:10:01.912Z,0.94
2019-01-31T08:12:34.683Z,1.00
2019-01-31T08:15:11.341Z,1.06
2019-01-31T08:17:43.000Z,0.88
2019-01-31T08:20:21.495Z,0.81
2019-01-31T08:22:53.180Z,0.92
2019-01-31T08:25:25.700Z,0.93
2019-01-31T08:27:57.323Z,0.79
2019-01-31T08:30:38.925Z,0.61
2019-01-31T08:33:10.543Z,0.60
2019-01-31T08:35:42.113Z,0.54
2019-01-31T08:38:13.715Z,0.71
2019-01-31T08:40:45.300Z,0.87
2019-01-31T08:43:16.978Z,0.85
2019-01-31T08:45:48.616Z,0.99
2019-01-31T08:48:20.176Z,1.08
2019-01-31T08:50:51.862Z,1.24
2019-01-31T08:53:23.524Z,1.48
2019-01-31T08:55:55.256Z,1.43
2019-01-31T08:58:26.959Z,1.28
2019-01-31T09:00:58.698Z,1.21
2019-01-31T09:03:31.314Z,1.29
2019-01-31T09:06:02.895Z,1.17
2019-01-31T09:08:34.742Z,1.34
2019-01-31T09:11:09.966Z,1.33
2019-01-31T09:13:41.665Z,1.60
2019-01-31T09:16:13.404Z,1.72
2019-01-31T09:18:45.316Z,1.62
2019-01-31T09:21:27.672Z,1.71
2019-01-31T09:24:15.840Z,1.78
2019-01-31T09:27:06.729Z,1.86
2019-01-31T09:30:13.406Z,1.99
2019-01-31T09:33:21.452Z,2.14
2019-01-31T09:36:13.063Z,2.09
2019-01-31T09:39:13.237Z,2.26
2019-01-31T09:42:04.685Z,2.29
2019-01-31T09:45:09.699Z,2.00
2019-01-31T09:48:00.903Z,2.19
2019-01-31T09:51:07.300Z,2.31
2019-01-31T09:53:52.850Z,2.42
2019-01-31T09:56:38.124Z,2.32
2019-01-31T09:59:20.557Z,2.29
2019-01-31T10:02:24.254Z,2.28
2019-01-31T10:05:00.865Z,2.35
2019-01-31T10:07:53.906Z,2.39
2019-01-31T10:10:56.008Z,2.41
2019-01-31T10:13:44.662Z,2.46
2019-01-31T10:16:43.569Z,2.27
2019-01-31T10:19:26.068Z,2.20
2019-01-31T10:22:22.177Z,2.35
2019-01-31T10:25:19.186Z,2.27
2019-01-31T10:28:16.463Z,2.23
2019-01-31T10:31:12.201Z,2.32
2019-01-31T10:33:57.456Z,2.43
2019-01-31T10:36:37.100Z,2.60
2019-01-31T10:39:37.948Z,2.62
2019-01-31T10:42:20.415Z,2.66
2019-01-31T10:45:25.790Z,2.59
2019-01-31T10:48:33.909Z,2.55
2019-01-31T10:51:10.477Z,2.42
2019-01-31T10:54:07.694Z,2.46
2019-01-31T10:56:58.583Z,2.57
2019-01-31T10:59:57.569Z,2.70
2019-01-31T11:03:13.356Z,2.77
2019-01-31T11:06:01.994Z,2.64
2019-01-31T11:08:47.292Z,2.61
2019-01-31T11:11:30.307Z,2.61
2019-01-31T11:14:12.583Z,2.63
2019-01-31T11:17:16.013Z,2.80
2019-01-31T11:19:55.480Z,2.88
2019-01-31T11:22:56.248Z,2.96
2019-01-31T11:25:56.540Z,2.97
2019-01-31T11:28:41.539Z,3.03
2019-01-31T11:31:45.223Z,3.01
2019-01-31T11:34:33.085Z,2.92
2019-01-31T11:37:17.250Z,3.01
2019-01-31T11:40:11.553Z,3.08
2019-01-31T11:43:11.871Z,3.36
2019-01-31T11:46:14.494Z,3.34
2019-01-31T11:49:05.650Z,3.38
2019-01-31T11:52:09.137Z,3.53
2019-01-31T11:55:04.780Z,3.34
2019-01-31T11:58:01.640Z,3.45
2019-01-31T12:00:33.876Z,3.48
2019-01-31T12:03:05.573Z,3.50
2019-01-31T12:05:37.273Z,3.61
2019-01-31T12:08:08.956Z,3.54
2019-01-31T12:10:40.545Z,3.63
2019-01-31T12:13:22.718Z,3.50
2019-01-31T12:15:45.455Z,3.50
2019-01-31T12:18:17.026Z,3.59
2019-01-31T12:20:48.577Z,3.58
2019-01-31T12:23:20.235Z,3.59
2019-01-31T12:25:51.913Z,3.76
2019-01-31T12:28:23.551Z,3.82
2019-01-31T12:30:55.296Z,3.95
2019-01-31T12:33:27.003Z,4.09
2019-01-31T12:35:58.627Z,4.13
2019-01-31T12:38:36.790Z,4.20
2019-01-31T12:41:04.892Z,4.09
2019-01-31T12:43:36.595Z,3.99
2019-01-31T12:46:08.294Z,4.00
2019-01-31T12:48:40.008Z,4.03
2019-01-31T12:51:11.586Z,4.12
2019-01-31T12:53:43.159Z,4.14
2019-01-31T12:56:14.875Z,4.22
2019-01-31T12:58:46.448Z,4.27
2019-01-31T13:01:18.173Z,4.29
2019-01-31T13:03:49.761Z,4.23
2019-01-31T13:06:21.423Z,4.21
2019-01-31T13:08:53.948Z,4.13
2019-01-31T13:11:31.888Z,3.99
2019-01-31T13:14:03.906Z,4.06
2019-01-31T13:16:39.948Z,4.05
2019-01-31T13:19:12.791Z,3.97
2019-01-31T13:21:44.371Z,3.95
2019-01-31T13:24:16.018Z,4.12
2019-01-31T13:26:47.644Z,4.11
2019-01-31T13:29:19.197Z,4.20
2019-01-31T13:31:50.815Z,4.03
2019-01-31T13:34:22.427Z,4.15
2019-01-31T13:36:54.083Z,4.07
2019-01-31T13:39:25.730Z,4.00
2019-01-31T13:41:57.361Z,3.92
2019-01-31T13:44:31.274Z,3.99
2019-01-31T13:47:03.033Z,3.97
2019-01-31T13:49:36.832Z,3.93
2019-01-31T13:52:12.024Z,3.98
2019-01-31T13:54:43.686Z,3.94
2019-01-31T13:57:15.325Z,4.04
2019-01-31T13:59:47.084Z,4.10
2019-01-31T14:02:18.797Z,4.00
2019-01-31T14:04:50.399Z,4.03
2019-01-31T14:07:27.580Z,4.14
2019-01-31T14:09:58.828Z,4.12
2019-01-31T14:12:31.922Z,4.27
2019-01-31T14:15:04.612Z,4.17
2019-01-31T14:17:36.254Z,4.27
2019-01-31T14:20:12.719Z,4.36
2019-01-31T14:22:44.363Z,4.31
2019-01-31T14:25:16.065Z,4.39
2019-01-31T14:27:50.027Z,4.42
2019-01-31T14:30:38.340Z,4.35
2019-01-31T14:33:11.664Z,4.33
2019-01-31T14:35:43.302Z,4.31
2019-01-31T14:38:14.913Z,4.30
2019-01-31T14:40:46.591Z,4.37
2019-01-31T14:43:18.456Z,4.30
2019-01-31T14:45:50.111Z,4.30
2019-01-31T14:48:22.745Z,4.32
2019-01-31T14:50:55.503Z,4.24
2019-01-31T14:53:27.184Z,4.10
2019-01-31T14:55:58.804Z,4.15
2019-01-31T14:58:30.474Z,4.25
2019-01-31T15:01:02.075Z,4.18
2019-01-31T15:03:33.748Z,4.29
2019-01-31T15:06:05.367Z,4.28
2019-01-31T15:08:38.025Z,4.35
2019-01-31T15:11:09.756Z,4.34
2019-01-31T15:13:42.436Z,4.38
2019-01-31T15:16:14.077Z,4.26
2019-01-31T15:18:45.656Z,4.20
2019-01-31T15:21:17.337Z,4.20
2019-01-31T15:23:50.577Z,4.24
2019-01-31T15:26:22.197Z,4.30
2019-01-31T15:28:53.792Z,4.35
2019-01-31T15:31:25.395Z,4.41
2019-01-31T15:33:57.114Z,4.41
2019-01-31T15:36:28.772Z,4.43
2019-01-31T15:39:00.389Z,4.44
2019-01-31T15:41:33.407Z,4.40
2019-01-31T15:44:05.154Z,4.40
2019-01-31T15:46:36.866Z,4.41
2019-01-31T15:49:08.508Z,4.40
2019-01-31T15:51:40.163Z,4.41
2019-01-31T15:54:14.446Z,4.37
2019-01-31T15:56:47.078Z,4.41
2019-01-31T15:59:18.828Z,4.41
2019-01-31T16:01:50.557Z,4.41
2019-01-31T16:04:22.211Z,4.45
2019-01-31T16:06:53.854Z,4.48
2019-01-31T16:09:25.561Z,4.46
2019-01-31T16:11:59.732Z,4.42
2019-01-31T16:14:30.704Z,4.41
2019-01-31T16:17:02.385Z,4.40
2019-01-31T16:19:34.147Z,4.34
2019-01-31T16:22:06.613Z,4.27
2019-01-31T16:24:38.264Z,4.21
2019-01-31T16:27:09.834Z,4.16
2019-01-31T16:29:41.563Z,4.16
2019-01-31T16:32:13.715Z,4.04
2019-01-31T16:34:47.474Z,4.00
2019-01-31T16:37:19.159Z,3.91
2019-01-31T16:39:50.868Z,3.86
2019-01-31T16:42:22.511Z,3.79
2019-01-31T16:44:54.290Z,3.78
2019-01-31T16:47:27.527Z,3.70
2019-01-31T16:49:59.166Z,3.62
2019-01-31T16:52:30.883Z,3.63
2019-01-31T16:55:02.654Z,3.53
2019-01-31T16:57:34.380Z,3.55
2019-01-31T17:00:16.203Z,3.45
2019-01-31T17:02:47.879Z,3.40
2019-01-31T17:05:22.704Z,3.32
2019-01-31T17:07:54.419Z,3.27
2019-01-31T17:10:27.194Z,3.22
2019-01-31T17:12:58.889Z,3.13
2019-01-31T17:15:32.265Z,3.16
2019-01-31T17:18:03.934Z,3.17
2019-01-31T17:20:39.147Z,3.15
2019-01-31T17:23:10.855Z,3.09
2019-01-31T17:25:42.453Z,3.09
2019-01-31T17:28:14.100Z,3.08
2019-01-31T17:30:45.774Z,3.06
2019-01-31T17:33:17.366Z,3.08
2019-01-31T17:35:48.956Z,3.06
2019-01-31T17:38:20.619Z,3.07
2019-01-31T17:40:52.283Z,3.11
2019-01-31T17:43:23.863Z,3.05
2019-01-31T17:45:55.807Z,2.98
2019-01-31T17:48:27.436Z,2.96
2019-01-31T17:50:59.119Z,2.95
2019-01-31T17:53:30.851Z,2.85
2019-01-31T17:56:02.504Z,2.80
2019-01-31T17:58:35.227Z,2.75
2019-01-31T18:01:07.879Z,2.79
2019-01-31T18:03:39.464Z,2.69
2019-01-31T18:06:11.197Z,2.62
2019-01-31T18:08:42.955Z,2.48
2019-01-31T18:11:14.618Z,2.49
2019-01-31T18:13:46.277Z,2.49
2019-01-31T18:16:17.895Z,2.36
2019-01-31T18:18:49.550Z,2.28
2019-01-31T18:21:21.169Z,2.20
2019-01-31T18:23:52.779Z,2.22
2019-01-31T18:26:24.430Z,2.17
2019-01-31T18:28:56.031Z,2.11
2019-01-31T18:31:27.676Z,2.07
2019-01-31T18:33:59.344Z,2.08
2019-01-31T18:36:30.993Z,2.07
2019-01-31T18:39:03.083Z,2.18
2019-01-31T18:41:34.729Z,2.10
2019-01-31T18:44:06.386Z,1.96
2019-01-31T18:46:38.034Z,1.89
2019-01-31T18:49:09.680Z,1.87
2019-01-31T18:51:41.329Z,1.96
2019-01-31T18:54:15.719Z,1.86
2019-01-31T18:56:47.716Z,1.96
2019-01-31T18:59:19.296Z,2.02
2019-01-31T19:01:50.920Z,2.00
2019-01-31T19:04:22.709Z,2.00
2019-01-31T19:06:54.416Z,1.97
2019-01-31T19:09:26.106Z,1.97
2019-01-31T19:11:57.891Z,1.95
2019-01-31T19:14:29.561Z,1.76
2019-01-31T19:17:03.401Z,1.79
2019-01-31T19:19:35.345Z,1.88
2019-01-31T19:22:10.608Z,1.85
2019-01-31T19:24:43.717Z,1.83
2019-01-31T19:27:15.563Z,1.75
2019-01-31T19:29:47.420Z,1.68
2019-01-31T19:32:19.333Z,1.64
2019-01-31T19:34:51.013Z,1.65
2019-01-31T19:37:22.678Z,1.59
2019-01-31T19:39:54.400Z,1.51
2019-01-31T19:42:26.016Z,1.55
2019-01-31T19:44:58.579Z,1.56
2019-01-31T19:47:30.362Z,1.48
2019-01-31T19:50:01.993Z,1.51
2019-01-31T19:52:34.663Z,1.56
2019-01-31T19:55:17.912Z,1.46
2019-01-31T19:57:51.522Z,1.44
2019-01-31T20:00:27.298Z,1.38
2019-01-31T20:02:58.978Z,1.27
2019-01-31T20:05:32.133Z,1.36
2019-01-31T20:08:13.976Z,1.37
2019-01-31T20:10:48.050Z,1.38
2019-01-31T20:13:19.793Z,1.34
2019-01-31T20:15:51.603Z,1.39
2019-01-31T20:18:23.449Z,1.41
2019-01-31T20:20:55.134Z,1.36
2019-01-31T20:23:26.775Z,1.35
2019-01-31T20:25:58.476Z,1.34
2019-01-31T20:28:30.207Z,1.39
2019-01-31T20:31:01.829Z,1.46
2019-01-31T20:33:33.508Z,1.49
2019-01-31T20:36:05.253Z,1.40
2019-01-31T20:38:36.853Z,1.48
2019-01-31T20:41:08.477Z,1.49
2019-01-31T20:43:40.138Z,1.49
2019-01-31T20:46:11.806Z,1.50
2019-01-31T20:48:43.524Z,1.53
2019-01-31T20:51:15.181Z,1.55
2019-01-31T20:53:46.887Z,1.53
2019-01-31T20:56:18.698Z,1.52
2019-01-31T20:58:50.297Z,1.59
2019-01-31T21:01:22.018Z,1.62
2019-01-31T21:03:53.758Z,1.60
2019-01-31T21:06:25.402Z,1.65
2019-01-31T21:08:57.210Z,1.69
2019-01-31T21:11:28.886Z,1.72
2019-01-31T21:14:00.508Z,1.71
2019-01-31T21:16:32.177Z,1.73
2019-01-31T21:19:03.780Z,1.66
2019-01-31T21:21:35.436Z,1.56
2019-01-31T21:24:07.191Z,1.40
2019-01-31T21:26:38.936Z,1.43
2019-01-31T21:29:10.603Z,1.37
2019-01-31T21:31:44.261Z,1.43
2019-01-31T21:34:17.480Z,1.44
2019-01-31T21:36:49.355Z,1.49
2019-01-31T21:39:20.988Z,1.54
2019-01-31T21:41:52.673Z,1.54
2019-01-31T21:44:24.365Z,1.56
2019-01-31T21:47:02.793Z,1.57
2019-01-31T21:49:30.771Z,1.51
2019-01-31T21:52:02.389Z,1.43
2019-01-31T21:54:34.052Z,1.46
2019-01-31T21:57:05.714Z,1.49
2019-01-31T21:59:37.333Z,1.47
2019-01-31T22:02:09.060Z,1.46
2019-01-31T22:04:40.709Z,1.47
2019-01-31T22:07:12.364Z,1.48
2019-01-31T22:09:44.012Z,1.50
2019-01-31T22:12:15.663Z,1.47
2019-01-31T22:14:47.603Z,1.46
2019-01-31T22:17:19.309Z,1.42
2019-01-31T22:19:50.869Z,1.38
2019-01-31T22:22:22.492Z,1.31
2019-01-31T22:24:54.186Z,1.30
2019-01-31T22:27:25.850Z,1.35
2019-01-31T22:29:57.469Z,1.32
2019-01-31T22:32:29.129Z,1.21
2019-01-31T22:35:00.799Z,1.11
2019-01-31T22:37:32.620Z,1.10
2019-01-31T22:40:06.067Z,1.02
2019-01-31T22:42:37.787Z,1.04
2019-01-31T22:45:16.618Z,1.07
2019-01-31T22:47:48.230Z,1.12
2019-01-31T22:50:25.082Z,0.98
2019-01-31T22:52:56.752Z,1.01
2019-01-31T22:55:28.345Z,1.07
2019-01-31T22:58:00.029Z,1.12
2019-01-31T23:00:49.934Z,1.15
2019-01-31T23:03:21.621Z,1.22
2019-01-31T23:05:53.242Z,1.24
2019-01-31T23:08:24.933Z,1.27
2019-01-31T23:10:56.582Z,1.26
2019-01-31T23:13:28.239Z,1.27
2019-01-31T23:15:59.972Z,1.30
2019-01-31T23:18:31.564Z,1.37
2019-01-31T23:21:03.235Z,1.40
2019-01-31T23:23:34.815Z,1.31
2019-01-31T23:26:07.255Z,1.38
2019-01-31T23:28:38.937Z,1.39
2019-01-31T23:31:10.642Z,1.36
2019-01-31T23:33:42.258Z,1.41
2019-01-31T23:36:13.939Z,1.39
2019-01-31T23:38:45.579Z,1.43
2019-01-31T23:41:17.225Z,1.48
2019-01-31T23:43:48.873Z,1.48
2019-01-31T23:46:20.579Z,1.44
2019-01-31T23:48:52.199Z,1.44
2019-01-31T23:51:23.760Z,1.47
2019-01-31T23:53:55.512Z,1.34
2019-01-31T23:56:27.114Z,1.30
2019-01-31T23:58:58.696Z,1.23
